Archival Weather

Snohomish County (Paine Fld)

Everett, Washington (KPAE)

Report from: Saturday, October 28, 2023 2:53 PM PDT
Current time: Monday, June 24, 2024 1:59 AM PDT

Current weather – Weather history – Daily summaries
Weather forecast

Temperature8.9°C (48.0°F)
Wind chill7.5°C (45.4°F)
Dew point-4.4°C (24.1°F)
Winds 5 kts (2.6 m/s, 5.8 mph) North (10°)
Visibility10 mi. (16.1 km)
Clouds Sky clear
Altimeter30.52 in.Hg (1034 mB)
Relative humidity39 %
Density altitude-1,354 ft. (-413 m)
Sea-level pressure103.4 kPa (1034 mB, 30.53 in.Hg)
Remarks Automated weather observing station with precipitation discriminator
Flight conditions Visual Meteorological Conditions
Raw dataKPAE 282153Z 01005KT 10SM CLR 09/M04 A3052 RMK AO2 SLP339 T00891044
An error has occurred. This application may no longer respond until reloaded. Reload 🗙